sensor_id;sensor_type;location;lat;lon;timestamp;temperature;humidity
30234;DHT22;17046;52.074;4.748;2022-08-19T00:00:50;17.40;99.90
30234;DHT22;17046;52.074;4.748;2022-08-19T00:03:16;17.40;99.90
30234;DHT22;17046;52.074;4.748;2022-08-19T00:05:42;17.40;99.90
30234;DHT22;17046;52.074;4.748;2022-08-19T00:08:07;17.40;99.90
30234;DHT22;17046;52.074;4.748;2022-08-19T00:10:33;17.40;99.90
30234;DHT22;17046;52.074;4.748;2022-08-19T00:12:59;17.40;99.90
30234;DHT22;17046;52.074;4.748;2022-08-19T00:15:25;17.40;99.90
30234;DHT22;17046;52.074;4.748;2022-08-19T00:17:50;17.30;99.90
30234;DHT22;17046;52.074;4.748;2022-08-19T00:20:20;17.30;99.90
30234;DHT22;17046;52.074;4.748;2022-08-19T00:22:46;17.30;99.90
30234;DHT22;17046;52.074;4.748;2022-08-19T00:25:13;17.30;99.90
30234;DHT22;17046;52.074;4.748;2022-08-19T00:27:39;17.30;99.90
30234;DHT22;17046;52.074;4.748;2022-08-19T00:30:06;17.20;99.90
30234;DHT22;17046;52.074;4.748;2022-08-19T00:32:32;17.20;99.90
30234;DHT22;17046;52.074;4.748;2022-08-19T00:34:59;17.20;99.90
30234;DHT22;17046;52.074;4.748;2022-08-19T00:37:25;17.20;99.90
30234;DHT22;17046;52.074;4.748;2022-08-19T00:39:52;17.20;99.90
30234;DHT22;17046;52.074;4.748;2022-08-19T00:42:19;17.20;99.90
30234;DHT22;17046;52.074;4.748;2022-08-19T00:44:45;17.20;99.90
30234;DHT22;17046;52.074;4.748;2022-08-19T00:47:11;17.20;99.90
30234;DHT22;17046;52.074;4.748;2022-08-19T00:49:43;17.20;99.90
30234;DHT22;17046;52.074;4.748;2022-08-19T00:52:24;17.20;99.90
30234;DHT22;17046;52.074;4.748;2022-08-19T00:54:54;17.20;99.90
30234;DHT22;17046;52.074;4.748;2022-08-19T00:57:27;17.10;99.90
30234;DHT22;17046;52.074;4.748;2022-08-19T00:59:54;17.10;99.90
30234;DHT22;17046;52.074;4.748;2022-08-19T01:02:20;17.10;99.90
30234;DHT22;17046;52.074;4.748;2022-08-19T01:04:46;17.00;99.90
30234;DHT22;17046;52.074;4.748;2022-08-19T01:07:12;17.00;99.90
30234;DHT22;17046;52.074;4.748;2022-08-19T01:09:38;17.00;99.90
30234;DHT22;17046;52.074;4.748;2022-08-19T01:12:03;17.00;99.90
30234;DHT22;17046;52.074;4.748;2022-08-19T01:14:29;17.00;99.90
30234;DHT22;17046;52.074;4.748;2022-08-19T01:16:56;17.00;99.90
30234;DHT22;17046;52.074;4.748;2022-08-19T01:19:39;17.00;99.90
30234;DHT22;17046;52.074;4.748;2022-08-19T01:22:10;17.00;99.90
30234;DHT22;17046;52.074;4.748;2022-08-19T01:24:37;17.00;99.90
30234;DHT22;17046;52.074;4.748;2022-08-19T01:27:07;17.00;99.90
30234;DHT22;17046;52.074;4.748;2022-08-19T01:29:33;16.90;99.90
30234;DHT22;17046;52.074;4.748;2022-08-19T01:31:59;16.90;99.90
30234;DHT22;17046;52.074;4.748;2022-08-19T01:34:26;16.90;99.90
30234;DHT22;17046;52.074;4.748;2022-08-19T01:36:51;16.90;99.90
30234;DHT22;17046;52.074;4.748;2022-08-19T01:39:21;17.00;99.90
30234;DHT22;17046;52.074;4.748;2022-08-19T01:41:47;17.00;99.90
30234;DHT22;17046;52.074;4.748;2022-08-19T01:44:13;17.10;99.90
30234;DHT22;17046;52.074;4.748;2022-08-19T01:46:40;17.10;99.90
30234;DHT22;17046;52.074;4.748;2022-08-19T01:49:06;17.10;99.90
30234;DHT22;17046;52.074;4.748;2022-08-19T01:51:34;17.10;99.90
30234;DHT22;17046;52.074;4.748;2022-08-19T01:54:00;17.10;99.90
30234;DHT22;17046;52.074;4.748;2022-08-19T01:56:25;17.20;99.90
30234;DHT22;17046;52.074;4.748;2022-08-19T01:58:58;17.20;99.90
30234;DHT22;17046;52.074;4.748;2022-08-19T02:01:25;17.20;99.90
30234;DHT22;17046;52.074;4.748;2022-08-19T02:03:51;17.20;99.90
30234;DHT22;17046;52.074;4.748;2022-08-19T02:06:18;17.10;99.90
30234;DHT22;17046;52.074;4.748;2022-08-19T02:08:44;17.10;99.90
30234;DHT22;17046;52.074;4.748;2022-08-19T02:11:33;17.00;99.90
30234;DHT22;17046;52.074;4.748;2022-08-19T02:14:02;17.00;99.90
30234;DHT22;17046;52.074;4.748;2022-08-19T02:16:28;17.00;99.90
30234;DHT22;17046;52.074;4.748;2022-08-19T02:18:53;17.00;99.90
30234;DHT22;17046;52.074;4.748;2022-08-19T02:21:21;17.00;99.90
30234;DHT22;17046;52.074;4.748;2022-08-19T02:23:47;17.00;99.90
30234;DHT22;17046;52.074;4.748;2022-08-19T02:26:13;17.00;99.90
30234;DHT22;17046;52.074;4.748;2022-08-19T02:28:40;17.00;99.90
30234;DHT22;17046;52.074;4.748;2022-08-19T02:31:09;17.10;99.90
30234;DHT22;17046;52.074;4.748;2022-08-19T02:33:35;17.10;99.90
30234;DHT22;17046;52.074;4.748;2022-08-19T02:36:04;17.10;99.90
30234;DHT22;17046;52.074;4.748;2022-08-19T02:38:30;17.10;99.90
30234;DHT22;17046;52.074;4.748;2022-08-19T02:41:01;17.10;99.90
30234;DHT22;17046;52.074;4.748;2022-08-19T02:43:29;17.10;99.90
30234;DHT22;17046;52.074;4.748;2022-08-19T02:45:55;17.10;99.90
30234;DHT22;17046;52.074;4.748;2022-08-19T02:48:22;17.10;99.90
30234;DHT22;17046;52.074;4.748;2022-08-19T02:50:51;17.10;99.90
30234;DHT22;17046;52.074;4.748;2022-08-19T02:53:21;17.10;99.90
30234;DHT22;17046;52.074;4.748;2022-08-19T02:55:48;17.10;99.90
30234;DHT22;17046;52.074;4.748;2022-08-19T02:58:14;17.00;99.90
30234;DHT22;17046;52.074;4.748;2022-08-19T03:00:48;17.00;99.90
30234;DHT22;17046;52.074;4.748;2022-08-19T03:03:15;17.00;99.90
30234;DHT22;17046;52.074;4.748;2022-08-19T03:05:41;17.00;99.90
30234;DHT22;17046;52.074;4.748;2022-08-19T03:08:07;16.90;99.90
30234;DHT22;17046;52.074;4.748;2022-08-19T03:10:40;16.90;99.90
30234;DHT22;17046;52.074;4.748;2022-08-19T03:13:09;16.90;99.90
30234;DHT22;17046;52.074;4.748;2022-08-19T03:15:39;16.90;99.90
30234;DHT22;17046;52.074;4.748;2022-08-19T03:18:05;16.90;99.90
30234;DHT22;17046;52.074;4.748;2022-08-19T03:20:30;16.90;99.90
30234;DHT22;17046;52.074;4.748;2022-08-19T03:22:56;16.90;99.90
30234;DHT22;17046;52.074;4.748;2022-08-19T03:25:22;16.80;99.90
30234;DHT22;17046;52.074;4.748;2022-08-19T03:27:47;16.90;99.90
30234;DHT22;17046;52.074;4.748;2022-08-19T03:30:14;16.90;99.90
30234;DHT22;17046;52.074;4.748;2022-08-19T03:32:39;17.00;99.90
30234;DHT22;17046;52.074;4.748;2022-08-19T03:35:06;17.00;99.90
30234;DHT22;17046;52.074;4.748;2022-08-19T03:37:31;17.00;99.90
30234;DHT22;17046;52.074;4.748;2022-08-19T03:39:57;17.10;99.90
30234;DHT22;17046;52.074;4.748;2022-08-19T03:42:23;17.20;99.90
30234;DHT22;17046;52.074;4.748;2022-08-19T03:44:48;17.10;99.90
30234;DHT22;17046;52.074;4.748;2022-08-19T03:47:14;17.20;99.90
30234;DHT22;17046;52.074;4.748;2022-08-19T03:49:40;17.20;99.90
30234;DHT22;17046;52.074;4.748;2022-08-19T03:52:06;17.30;99.90
30234;DHT22;17046;52.074;4.748;2022-08-19T03:54:32;17.30;99.90
30234;DHT22;17046;52.074;4.748;2022-08-19T03:56:58;17.30;99.90
30234;DHT22;17046;52.074;4.748;2022-08-19T03:59:29;17.30;99.90
30234;DHT22;17046;52.074;4.748;2022-08-19T04:01:57;17.30;99.90
30234;DHT22;17046;52.074;4.748;2022-08-19T04:04:24;17.20;99.90
30234;DHT22;17046;52.074;4.748;2022-08-19T04:06:50;17.30;99.90
30234;DHT22;17046;52.074;4.748;2022-08-19T04:09:16;17.30;99.90
30234;DHT22;17046;52.074;4.748;2022-08-19T04:11:52;17.30;99.90
30234;DHT22;17046;52.074;4.748;2022-08-19T04:14:24;17.30;99.90
30234;DHT22;17046;52.074;4.748;2022-08-19T04:16:51;17.30;99.90
30234;DHT22;17046;52.074;4.748;2022-08-19T04:19:17;17.40;99.90
30234;DHT22;17046;52.074;4.748;2022-08-19T04:21:46;17.30;99.90
30234;DHT22;17046;52.074;4.748;2022-08-19T04:24:12;17.30;99.90
30234;DHT22;17046;52.074;4.748;2022-08-19T04:26:38;17.30;99.90
30234;DHT22;17046;52.074;4.748;2022-08-19T04:29:13;17.30;99.90
30234;DHT22;17046;52.074;4.748;2022-08-19T04:31:39;17.30;99.90
30234;DHT22;17046;52.074;4.748;2022-08-19T04:34:07;17.30;99.90
30234;DHT22;17046;52.074;4.748;2022-08-19T04:36:36;17.40;99.90
30234;DHT22;17046;52.074;4.748;2022-08-19T04:39:06;17.40;99.90
30234;DHT22;17046;52.074;4.748;2022-08-19T04:41:32;17.40;99.90
30234;DHT22;17046;52.074;4.748;2022-08-19T04:44:17;17.40;99.90
30234;DHT22;17046;52.074;4.748;2022-08-19T04:46:47;17.30;99.90
30234;DHT22;17046;52.074;4.748;2022-08-19T04:49:17;17.30;99.90
30234;DHT22;17046;52.074;4.748;2022-08-19T04:51:44;17.30;99.90
30234;DHT22;17046;52.074;4.748;2022-08-19T04:54:11;17.20;99.90
30234;DHT22;17046;52.074;4.748;2022-08-19T04:56:36;17.30;99.90
30234;DHT22;17046;52.074;4.748;2022-08-19T04:59:03;17.30;99.90
30234;DHT22;17046;52.074;4.748;2022-08-19T05:01:31;17.40;99.90
30234;DHT22;17046;52.074;4.748;2022-08-19T05:04:02;17.60;99.90
30234;DHT22;17046;52.074;4.748;2022-08-19T05:06:30;17.60;99.90
30234;DHT22;17046;52.074;4.748;2022-08-19T05:09:03;17.70;99.90
30234;DHT22;17046;52.074;4.748;2022-08-19T05:11:32;17.70;99.90
30234;DHT22;17046;52.074;4.748;2022-08-19T05:13:58;17.70;99.90
30234;DHT22;17046;52.074;4.748;2022-08-19T05:16:25;17.80;99.90
30234;DHT22;17046;52.074;4.748;2022-08-19T05:18:51;17.90;99.90
30234;DHT22;17046;52.074;4.748;2022-08-19T05:21:35;17.90;99.90
30234;DHT22;17046;52.074;4.748;2022-08-19T05:24:21;18.00;99.90
30234;DHT22;17046;52.074;4.748;2022-08-19T05:26:49;18.00;99.90
30234;DHT22;17046;52.074;4.748;2022-08-19T05:29:16;18.20;99.90
30234;DHT22;17046;52.074;4.748;2022-08-19T05:31:42;18.20;99.90
30234;DHT22;17046;52.074;4.748;2022-08-19T05:34:08;18.30;99.90
30234;DHT22;17046;52.074;4.748;2022-08-19T05:36:40;18.30;99.90
30234;DHT22;17046;52.074;4.748;2022-08-19T05:39:09;18.40;99.90
30234;DHT22;17046;52.074;4.748;2022-08-19T05:41:35;18.40;99.90
30234;DHT22;17046;52.074;4.748;2022-08-19T05:44:04;18.50;99.90
30234;DHT22;17046;52.074;4.748;2022-08-19T05:46:32;18.50;99.90
30234;DHT22;17046;52.074;4.748;2022-08-19T05:48:57;18.60;99.90
30234;DHT22;17046;52.074;4.748;2022-08-19T05:51:24;18.60;99.90
30234;DHT22;17046;52.074;4.748;2022-08-19T05:53:50;18.60;99.90
30234;DHT22;17046;52.074;4.748;2022-08-19T05:56:17;18.70;99.90
30234;DHT22;17046;52.074;4.748;2022-08-19T05:58:44;18.70;99.90
30234;DHT22;17046;52.074;4.748;2022-08-19T06:01:16;18.70;99.90
30234;DHT22;17046;52.074;4.748;2022-08-19T06:03:43;18.80;99.90
30234;DHT22;17046;52.074;4.748;2022-08-19T06:06:11;18.90;99.90
30234;DHT22;17046;52.074;4.748;2022-08-19T06:08:37;19.00;99.90
30234;DHT22;17046;52.074;4.748;2022-08-19T06:11:22;19.10;99.90
30234;DHT22;17046;52.074;4.748;2022-08-19T06:13:50;19.20;99.90
30234;DHT22;17046;52.074;4.748;2022-08-19T06:16:21;19.30;99.90
30234;DHT22;17046;52.074;4.748;2022-08-19T06:18:49;19.50;99.90
30234;DHT22;17046;52.074;4.748;2022-08-19T06:21:17;19.50;99.90
30234;DHT22;17046;52.074;4.748;2022-08-19T06:23:42;19.70;99.90
30234;DHT22;17046;52.074;4.748;2022-08-19T06:26:12;19.80;99.90
30234;DHT22;17046;52.074;4.748;2022-08-19T06:28:37;20.00;99.90
30234;DHT22;17046;52.074;4.748;2022-08-19T06:31:08;20.10;99.90
30234;DHT22;17046;52.074;4.748;2022-08-19T06:33:34;20.20;99.90
30234;DHT22;17046;52.074;4.748;2022-08-19T06:36:00;20.10;99.90
30234;DHT22;17046;52.074;4.748;2022-08-19T06:38:25;20.10;99.90
30234;DHT22;17046;52.074;4.748;2022-08-19T06:40:51;20.30;99.90
30234;DHT22;17046;52.074;4.748;2022-08-19T06:43:24;20.40;99.90
30234;DHT22;17046;52.074;4.748;2022-08-19T06:45:50;20.50;99.90
30234;DHT22;17046;52.074;4.748;2022-08-19T06:48:17;20.40;99.90
30234;DHT22;17046;52.074;4.748;2022-08-19T06:50:43;20.60;99.90
30234;DHT22;17046;52.074;4.748;2022-08-19T06:53:09;20.80;99.90
30234;DHT22;17046;52.074;4.748;2022-08-19T06:55:34;20.90;99.90
30234;DHT22;17046;52.074;4.748;2022-08-19T06:58:04;20.90;94.60
30234;DHT22;17046;52.074;4.748;2022-08-19T07:00:30;21.00;95.40
30234;DHT22;17046;52.074;4.748;2022-08-19T07:02:55;21.10;87.20
30234;DHT22;17046;52.074;4.748;2022-08-19T07:05:21;21.20;75.40
30234;DHT22;17046;52.074;4.748;2022-08-19T07:07:47;21.10;83.00
30234;DHT22;17046;52.074;4.748;2022-08-19T07:10:12;21.20;76.00
30234;DHT22;17046;52.074;4.748;2022-08-19T07:12:38;21.80;62.40
30234;DHT22;17046;52.074;4.748;2022-08-19T07:15:05;22.60;8.00
30234;DHT22;17046;52.074;4.748;2022-08-19T07:17:31;22.80;1.00
30234;DHT22;17046;52.074;4.748;2022-08-19T07:19:56;23.00;1.00
30234;DHT22;17046;52.074;4.748;2022-08-19T07:22:23;22.90;1.00
30234;DHT22;17046;52.074;4.748;2022-08-19T07:24:49;22.90;1.00
30234;DHT22;17046;52.074;4.748;2022-08-19T07:27:14;22.90;1.00
30234;DHT22;17046;52.074;4.748;2022-08-19T07:29:40;23.10;1.00
30234;DHT22;17046;52.074;4.748;2022-08-19T07:32:06;23.20;1.00
30234;DHT22;17046;52.074;4.748;2022-08-19T07:34:32;23.60;1.00
30234;DHT22;17046;52.074;4.748;2022-08-19T07:37:02;23.60;1.00
30234;DHT22;17046;52.074;4.748;2022-08-19T07:39:30;24.10;1.00
30234;DHT22;17046;52.074;4.748;2022-08-19T07:41:59;24.40;99.90
30234;DHT22;17046;52.074;4.748;2022-08-19T07:44:25;24.40;99.90
30234;DHT22;17046;52.074;4.748;2022-08-19T07:46:54;24.20;99.90
30234;DHT22;17046;52.074;4.748;2022-08-19T07:49:21;24.50;99.90
30234;DHT22;17046;52.074;4.748;2022-08-19T07:51:57;25.10;99.90
30234;DHT22;17046;52.074;4.748;2022-08-19T07:54:25;25.60;99.90
30234;DHT22;17046;52.074;4.748;2022-08-19T07:56:51;25.60;7.80
30234;DHT22;17046;52.074;4.748;2022-08-19T07:59:17;25.70;92.50
30234;DHT22;17046;52.074;4.748;2022-08-19T08:01:44;25.70;63.10
30234;DHT22;17046;52.074;4.748;2022-08-19T08:04:09;25.40;42.20
30234;DHT22;17046;52.074;4.748;2022-08-19T08:06:54;25.10;99.90
30234;DHT22;17046;52.074;4.748;2022-08-19T08:09:40;25.00;99.90
30234;DHT22;17046;52.074;4.748;2022-08-19T08:12:09;25.10;99.90
30234;DHT22;17046;52.074;4.748;2022-08-19T08:14:57;24.90;99.90
30234;DHT22;17046;52.074;4.748;2022-08-19T08:17:25;24.80;99.90
30234;DHT22;17046;52.074;4.748;2022-08-19T08:19:53;24.90;99.90
30234;DHT22;17046;52.074;4.748;2022-08-19T08:22:21;24.70;99.90
30234;DHT22;17046;52.074;4.748;2022-08-19T08:25:07;24.40;99.90
30234;DHT22;17046;52.074;4.748;2022-08-19T08:27:36;24.30;99.90
30234;DHT22;17046;52.074;4.748;2022-08-19T08:30:03;24.30;99.90
30234;DHT22;17046;52.074;4.748;2022-08-19T08:32:30;24.20;99.90
30234;DHT22;17046;52.074;4.748;2022-08-19T08:34:55;24.00;99.90
30234;DHT22;17046;52.074;4.748;2022-08-19T08:37:21;23.80;99.90
30234;DHT22;17046;52.074;4.748;2022-08-19T08:39:47;23.80;99.90
30234;DHT22;17046;52.074;4.748;2022-08-19T08:42:19;23.60;1.00
30234;DHT22;17046;52.074;4.748;2022-08-19T08:44:53;23.70;1.00
30234;DHT22;17046;52.074;4.748;2022-08-19T08:47:22;23.70;99.90
30234;DHT22;17046;52.074;4.748;2022-08-19T08:50:01;23.50;1.00
30234;DHT22;17046;52.074;4.748;2022-08-19T08:52:32;23.40;1.00
30234;DHT22;17046;52.074;4.748;2022-08-19T08:55:07;23.30;1.00
30234;DHT22;17046;52.074;4.748;2022-08-19T09:00:24;23.20;1.00
30234;DHT22;17046;52.074;4.748;2022-08-19T09:02:52;23.20;1.00
30234;DHT22;17046;52.074;4.748;2022-08-19T09:05:18;23.20;1.00
30234;DHT22;17046;52.074;4.748;2022-08-19T09:10:39;23.30;1.00
30234;DHT22;17046;52.074;4.748;2022-08-19T09:13:27;23.60;1.00
30234;DHT22;17046;52.074;4.748;2022-08-19T09:16:07;23.70;1.00
30234;DHT22;17046;52.074;4.748;2022-08-19T09:18:45;23.80;1.00
30234;DHT22;17046;52.074;4.748;2022-08-19T09:21:13;23.80;99.90
30234;DHT22;17046;52.074;4.748;2022-08-19T09:23:40;23.70;1.00
30234;DHT22;17046;52.074;4.748;2022-08-19T09:26:08;24.10;99.90
30234;DHT22;17046;52.074;4.748;2022-08-19T09:28:34;24.40;99.90
30234;DHT22;17046;52.074;4.748;2022-08-19T09:31:00;24.30;99.90
30234;DHT22;17046;52.074;4.748;2022-08-19T09:33:26;24.80;99.90
30234;DHT22;17046;52.074;4.748;2022-08-19T09:36:05;25.20;99.90
30234;DHT22;17046;52.074;4.748;2022-08-19T09:38:32;25.60;73.60
30234;DHT22;17046;52.074;4.748;2022-08-19T09:41:03;25.60;43.00
30234;DHT22;17046;52.074;4.748;2022-08-19T09:43:30;25.30;99.90
30234;DHT22;17046;52.074;4.748;2022-08-19T09:45:56;25.40;99.90
30234;DHT22;17046;52.074;4.748;2022-08-19T09:48:21;25.40;74.30
30234;DHT22;17046;52.074;4.748;2022-08-19T09:50:47;25.20;99.90
30234;DHT22;17046;52.074;4.748;2022-08-19T09:53:13;25.40;99.90
30234;DHT22;17046;52.074;4.748;2022-08-19T09:55:43;25.60;99.90
30234;DHT22;17046;52.074;4.748;2022-08-19T09:58:08;26.00;1.00
30234;DHT22;17046;52.074;4.748;2022-08-19T10:00:37;26.20;1.00
30234;DHT22;17046;52.074;4.748;2022-08-19T10:03:03;26.00;1.00
30234;DHT22;17046;52.074;4.748;2022-08-19T10:05:28;25.90;1.00
30234;DHT22;17046;52.074;4.748;2022-08-19T10:08:12;25.60;1.00
30234;DHT22;17046;52.074;4.748;2022-08-19T10:10:38;25.40;1.00
30234;DHT22;17046;52.074;4.748;2022-08-19T10:13:03;25.20;34.80
30234;DHT22;17046;52.074;4.748;2022-08-19T10:15:29;24.90;99.90
30234;DHT22;17046;52.074;4.748;2022-08-19T10:17:55;24.70;99.90
30234;DHT22;17046;52.074;4.748;2022-08-19T10:20:20;25.10;99.90
30234;DHT22;17046;52.074;4.748;2022-08-19T10:22:47;25.40;59.70
30234;DHT22;17046;52.074;4.748;2022-08-19T10:25:12;25.60;1.00
30234;DHT22;17046;52.074;4.748;2022-08-19T10:27:42;25.40;1.00
30234;DHT22;17046;52.074;4.748;2022-08-19T10:30:08;24.80;99.90
30234;DHT22;17046;52.074;4.748;2022-08-19T10:32:34;24.70;99.90
30234;DHT22;17046;52.074;4.748;2022-08-19T10:34:59;24.40;99.90
30234;DHT22;17046;52.074;4.748;2022-08-19T10:37:25;24.10;1.00
30234;DHT22;17046;52.074;4.748;2022-08-19T10:39:51;23.80;1.00
30234;DHT22;17046;52.074;4.748;2022-08-19T10:42:17;23.50;1.00
30234;DHT22;17046;52.074;4.748;2022-08-19T10:44:44;23.20;1.00
30234;DHT22;17046;52.074;4.748;2022-08-19T10:47:10;23.10;1.00
30234;DHT22;17046;52.074;4.748;2022-08-19T10:49:35;23.20;1.00
30234;DHT22;17046;52.074;4.748;2022-08-19T10:52:21;23.20;1.00
30234;DHT22;17046;52.074;4.748;2022-08-19T10:55:02;23.40;1.00
30234;DHT22;17046;52.074;4.748;2022-08-19T10:57:48;23.70;1.00
30234;DHT22;17046;52.074;4.748;2022-08-19T11:00:13;24.00;1.00
30234;DHT22;17046;52.074;4.748;2022-08-19T11:02:39;24.30;1.00
30234;DHT22;17046;52.074;4.748;2022-08-19T11:05:07;24.60;1.00
30234;DHT22;17046;52.074;4.748;2022-08-19T11:07:34;24.90;99.90
30234;DHT22;17046;52.074;4.748;2022-08-19T11:10:01;25.10;99.90
30234;DHT22;17046;52.074;4.748;2022-08-19T11:12:28;25.30;99.90
30234;DHT22;17046;52.074;4.748;2022-08-19T11:14:53;25.40;99.90
30234;DHT22;17046;52.074;4.748;2022-08-19T11:17:19;25.50;33.20
30234;DHT22;17046;52.074;4.748;2022-08-19T11:19:45;25.60;99.90
30234;DHT22;17046;52.074;4.748;2022-08-19T11:22:12;25.90;1.00
30234;DHT22;17046;52.074;4.748;2022-08-19T11:24:38;26.20;1.00
30234;DHT22;17046;52.074;4.748;2022-08-19T11:27:06;26.00;1.00
30234;DHT22;17046;52.074;4.748;2022-08-19T11:29:34;26.00;1.00
30234;DHT22;17046;52.074;4.748;2022-08-19T11:32:06;25.70;1.00
30234;DHT22;17046;52.074;4.748;2022-08-19T11:34:33;25.30;1.00
30234;DHT22;17046;52.074;4.748;2022-08-19T11:37:01;25.00;1.00
30234;DHT22;17046;52.074;4.748;2022-08-19T11:39:29;24.70;60.40
30234;DHT22;17046;52.074;4.748;2022-08-19T11:41:56;24.40;99.90
30234;DHT22;17046;52.074;4.748;2022-08-19T11:44:22;24.50;99.90
30234;DHT22;17046;52.074;4.748;2022-08-19T11:46:48;24.60;99.90
30234;DHT22;17046;52.074;4.748;2022-08-19T11:49:15;24.70;64.10
30234;DHT22;17046;52.074;4.748;2022-08-19T11:51:42;24.80;26.90
30234;DHT22;17046;52.074;4.748;2022-08-19T11:54:12;24.90;71.00
30234;DHT22;17046;52.074;4.748;2022-08-19T11:56:38;25.00;99.90
30234;DHT22;17046;52.074;4.748;2022-08-19T11:59:04;24.90;99.90
30234;DHT22;17046;52.074;4.748;2022-08-19T12:01:30;25.00;99.90
30234;DHT22;17046;52.074;4.748;2022-08-19T12:03:57;25.20;78.80
30234;DHT22;17046;52.074;4.748;2022-08-19T12:06:29;25.30;42.10
30234;DHT22;17046;52.074;4.748;2022-08-19T12:08:56;25.60;16.00
30234;DHT22;17046;52.074;4.748;2022-08-19T12:11:22;25.70;1.00
30234;DHT22;17046;52.074;4.748;2022-08-19T12:13:48;25.80;1.00
30234;DHT22;17046;52.074;4.748;2022-08-19T12:16:18;25.90;1.00
30234;DHT22;17046;52.074;4.748;2022-08-19T12:18:45;26.00;1.00
30234;DHT22;17046;52.074;4.748;2022-08-19T12:21:16;25.90;1.00
30234;DHT22;17046;52.074;4.748;2022-08-19T12:23:43;26.00;1.00
30234;DHT22;17046;52.074;4.748;2022-08-19T12:26:10;26.00;1.00
30234;DHT22;17046;52.074;4.748;2022-08-19T12:28:37;25.90;1.00
30234;DHT22;17046;52.074;4.748;2022-08-19T12:31:03;25.90;1.00
30234;DHT22;17046;52.074;4.748;2022-08-19T12:33:29;26.20;99.90
30234;DHT22;17046;52.074;4.748;2022-08-19T12:35:54;26.50;99.90
30234;DHT22;17046;52.074;4.748;2022-08-19T12:38:24;26.70;99.90
30234;DHT22;17046;52.074;4.748;2022-08-19T12:40:50;26.50;99.90
30234;DHT22;17046;52.074;4.748;2022-08-19T12:43:17;26.30;99.90
30234;DHT22;17046;52.074;4.748;2022-08-19T12:45:43;26.30;1.00
30234;DHT22;17046;52.074;4.748;2022-08-19T12:48:10;26.40;1.00
30234;DHT22;17046;52.074;4.748;2022-08-19T12:50:39;26.50;1.00
30234;DHT22;17046;52.074;4.748;2022-08-19T12:53:04;26.50;1.00
30234;DHT22;17046;52.074;4.748;2022-08-19T12:55:30;26.80;99.90
30234;DHT22;17046;52.074;4.748;2022-08-19T12:57:56;26.90;99.90
30234;DHT22;17046;52.074;4.748;2022-08-19T13:00:22;27.10;99.90
30234;DHT22;17046;52.074;4.748;2022-08-19T13:02:49;27.20;99.90
30234;DHT22;17046;52.074;4.748;2022-08-19T13:05:21;27.40;99.90
30234;DHT22;17046;52.074;4.748;2022-08-19T13:07:49;27.40;99.90
30234;DHT22;17046;52.074;4.748;2022-08-19T13:10:17;27.10;99.90
30234;DHT22;17046;52.074;4.748;2022-08-19T13:12:45;27.00;99.90
30234;DHT22;17046;52.074;4.748;2022-08-19T13:15:11;26.90;99.90
30234;DHT22;17046;52.074;4.748;2022-08-19T13:17:38;26.70;99.90
30234;DHT22;17046;52.074;4.748;2022-08-19T13:20:04;26.70;99.90
30234;DHT22;17046;52.074;4.748;2022-08-19T13:22:31;26.70;99.90
30234;DHT22;17046;52.074;4.748;2022-08-19T13:24:56;26.70;99.90
30234;DHT22;17046;52.074;4.748;2022-08-19T13:27:22;26.70;99.90
30234;DHT22;17046;52.074;4.748;2022-08-19T13:29:47;26.80;99.90
30234;DHT22;17046;52.074;4.748;2022-08-19T13:32:32;26.80;99.90
30234;DHT22;17046;52.074;4.748;2022-08-19T13:35:16;26.50;99.90
30234;DHT22;17046;52.074;4.748;2022-08-19T13:37:43;26.70;99.90
30234;DHT22;17046;52.074;4.748;2022-08-19T13:40:15;26.90;99.90
30234;DHT22;17046;52.074;4.748;2022-08-19T13:42:43;26.70;99.90
30234;DHT22;17046;52.074;4.748;2022-08-19T13:45:09;26.60;99.90
30234;DHT22;17046;52.074;4.748;2022-08-19T13:47:36;26.30;99.90
30234;DHT22;17046;52.074;4.748;2022-08-19T13:50:11;26.30;99.90
30234;DHT22;17046;52.074;4.748;2022-08-19T13:52:38;26.30;99.90
30234;DHT22;17046;52.074;4.748;2022-08-19T13:55:05;26.30;99.90
30234;DHT22;17046;52.074;4.748;2022-08-19T13:57:31;26.40;99.90
30234;DHT22;17046;52.074;4.748;2022-08-19T13:59:58;26.40;99.90
30234;DHT22;17046;52.074;4.748;2022-08-19T14:02:24;26.30;99.90
30234;DHT22;17046;52.074;4.748;2022-08-19T14:04:50;25.90;1.00
30234;DHT22;17046;52.074;4.748;2022-08-19T14:07:15;25.70;1.00
30234;DHT22;17046;52.074;4.748;2022-08-19T14:09:41;25.70;1.00
30234;DHT22;17046;52.074;4.748;2022-08-19T14:12:07;25.70;1.00
30234;DHT22;17046;52.074;4.748;2022-08-19T14:14:37;25.70;1.00
30234;DHT22;17046;52.074;4.748;2022-08-19T14:17:06;25.60;1.00
30234;DHT22;17046;52.074;4.748;2022-08-19T14:19:32;25.50;1.00
30234;DHT22;17046;52.074;4.748;2022-08-19T14:21:57;25.50;1.00
30234;DHT22;17046;52.074;4.748;2022-08-19T14:24:23;25.70;1.00
30234;DHT22;17046;52.074;4.748;2022-08-19T14:26:49;25.80;1.00
30234;DHT22;17046;52.074;4.748;2022-08-19T14:29:14;25.90;1.00
30234;DHT22;17046;52.074;4.748;2022-08-19T14:31:39;26.30;1.00
30234;DHT22;17046;52.074;4.748;2022-08-19T14:34:08;26.70;1.00
30234;DHT22;17046;52.074;4.748;2022-08-19T14:36:35;26.90;1.00
30234;DHT22;17046;52.074;4.748;2022-08-19T14:39:01;26.70;4.50
30234;DHT22;17046;52.074;4.748;2022-08-19T14:41:27;26.20;91.30
30234;DHT22;17046;52.074;4.748;2022-08-19T14:43:53;26.00;99.90
30234;DHT22;17046;52.074;4.748;2022-08-19T14:46:22;25.70;99.90
30234;DHT22;17046;52.074;4.748;2022-08-19T14:48:48;25.40;99.90
30234;DHT22;17046;52.074;4.748;2022-08-19T14:51:15;25.10;99.90
30234;DHT22;17046;52.074;4.748;2022-08-19T14:53:41;25.10;99.90
30234;DHT22;17046;52.074;4.748;2022-08-19T14:56:13;25.40;99.90
30234;DHT22;17046;52.074;4.748;2022-08-19T14:58:39;25.80;99.90
30234;DHT22;17046;52.074;4.748;2022-08-19T15:01:07;26.20;1.00
30234;DHT22;17046;52.074;4.748;2022-08-19T15:03:33;26.40;1.00
30234;DHT22;17046;52.074;4.748;2022-08-19T15:06:03;26.30;1.00
30234;DHT22;17046;52.074;4.748;2022-08-19T15:08:31;26.10;1.00
30234;DHT22;17046;52.074;4.748;2022-08-19T15:10:58;25.90;1.00
30234;DHT22;17046;52.074;4.748;2022-08-19T15:13:25;25.80;1.00
30234;DHT22;17046;52.074;4.748;2022-08-19T15:15:52;26.00;1.00
30234;DHT22;17046;52.074;4.748;2022-08-19T15:18:18;25.90;1.00
30234;DHT22;17046;52.074;4.748;2022-08-19T15:20:46;25.90;1.00
30234;DHT22;17046;52.074;4.748;2022-08-19T15:23:13;25.50;1.00
30234;DHT22;17046;52.074;4.748;2022-08-19T15:25:40;25.40;1.00
30234;DHT22;17046;52.074;4.748;2022-08-19T15:28:07;25.20;1.00
30234;DHT22;17046;52.074;4.748;2022-08-19T15:30:33;25.00;75.20
30234;DHT22;17046;52.074;4.748;2022-08-19T15:32:58;24.80;99.90
30234;DHT22;17046;52.074;4.748;2022-08-19T15:35:24;24.70;99.90
30234;DHT22;17046;52.074;4.748;2022-08-19T15:37:51;24.70;99.90
30234;DHT22;17046;52.074;4.748;2022-08-19T15:40:18;24.50;99.90
30234;DHT22;17046;52.074;4.748;2022-08-19T15:42:44;24.50;99.90
30234;DHT22;17046;52.074;4.748;2022-08-19T15:45:12;24.20;99.90